createdAt,value
2023-11-20T00:05:40.313Z,44
2023-11-20T00:25:41.246Z,42
2023-11-20T00:35:42.259Z,41
2023-11-20T00:45:42.560Z,41
2023-11-20T00:55:42.854Z,42
2023-11-20T01:05:43.664Z,42
2023-11-20T01:15:44.606Z,44
2023-11-20T01:25:45.340Z,46
2023-11-20T01:35:46.205Z,48
2023-11-20T01:45:47.136Z,48
2023-11-20T01:55:47.370Z,49
2023-11-20T02:05:47.526Z,50
2023-11-20T02:15:47.703Z,49
2023-11-20T02:25:48.322Z,49
2023-11-20T02:35:48.946Z,52
2023-11-20T02:45:49.324Z,58
2023-11-20T02:55:49.749Z,63
2023-11-20T03:05:50.661Z,58
2023-11-20T03:15:51.129Z,54
2023-11-20T03:25:51.540Z,53
2023-11-20T03:35:52.517Z,59
2023-11-20T03:45:53.438Z,63
2023-11-20T03:55:53.593Z,68
2023-11-20T04:05:54.070Z,71
2023-11-20T04:15:55.016Z,74
2023-11-20T04:25:55.103Z,77
2023-11-20T04:35:55.926Z,78
2023-11-20T04:55:56.431Z,79
2023-11-20T05:05:57.465Z,84
2023-11-20T05:15:58.392Z,85
2023-11-20T05:25:58.628Z,87
2023-11-20T05:35:59.690Z,87
2023-11-20T05:46:00.412Z,86
2023-11-20T05:56:00.523Z,89
2023-11-20T06:06:00.939Z,88
2023-11-20T06:16:01.579Z,89
2023-11-20T06:26:01.693Z,90
2023-11-20T06:36:02.046Z,90
2023-11-20T06:46:02.712Z,90
2023-11-20T06:56:03.131Z,90
2023-11-20T07:06:03.284Z,88
2023-11-20T07:16:04.121Z,87
2023-11-20T07:26:04.875Z,89
2023-11-20T07:46:06.106Z,92
2023-11-20T07:56:06.580Z,96
2023-11-20T08:06:13.201Z,100
2023-11-20T08:36:07.961Z,100
2023-11-20T08:46:12.843Z,100
2023-11-20T08:56:09.048Z,100
2023-11-20T09:06:09.948Z,100
2023-11-20T09:16:10.309Z,100
2023-11-20T09:26:11.301Z,100
2023-11-20T09:36:12.391Z,100
2023-11-20T09:46:12.555Z,100
2023-11-20T09:56:13.412Z,100
2023-11-20T10:06:12.934Z,100
2023-11-20T10:56:16.087Z,100
2023-11-20T12:36:25.451Z,100
2023-11-20T12:46:23.448Z,100
2023-11-20T13:36:25.376Z,100
2023-11-20T13:56:26.366Z,100
2023-11-20T14:06:26.740Z,100
2023-11-20T14:16:27.298Z,100
2023-11-20T14:26:32.012Z,100
2023-11-20T14:36:28.289Z,100
2023-11-20T14:46:28.797Z,100
2023-11-20T14:56:28.930Z,100
2023-11-20T15:06:30.003Z,100
2023-11-20T15:16:30.975Z,100
2023-11-20T15:36:32.649Z,100
2023-11-20T15:56:33.422Z,100
2023-11-20T16:06:33.771Z,100
2023-11-20T16:16:34.353Z,100
2023-11-20T16:26:34.538Z,100
2023-11-20T16:36:34.662Z,100
2023-11-20T16:46:41.037Z,100
2023-11-20T16:56:41.856Z,100
2023-11-20T17:06:42.542Z,99
2023-11-20T17:16:43.514Z,96
2023-11-20T17:26:43.565Z,92
2023-11-20T17:36:44.033Z,92
2023-11-20T17:46:44.381Z,88
